Time;durP1;ratioP1;P1;durP2;ratioP2;P2;SDS_P1;SDS_P2;PMS_P1;PMS_P2;Temp;Humidity;BMP_temperature;BMP_pressure;BME280_temperature;BME280_humidity;BME280_pressure;Samples;Min_cycle;Max_cycle;Signal;HPM_P1;HPM_P2
2022/06/23 00:02:20;;;;;;;2.00;1.85;;;19.90;99.90;;;;;;4976205;28;20042;-72
2022/06/23 00:05:02;;;;;;;3.25;1.90;;;19.90;99.90;;;;;;4993108;28;20026;-72
2022/06/23 00:07:35;;;;;;;1.23;1.15;;;19.90;99.90;;;;;;4993182;28;20041;-72
2022/06/23 00:10:15;;;;;;;0.20;0.20;;;19.90;99.90;;;;;;4991419;28;20510;-72
2022/06/23 00:12:43;;;;;;;1.00;1.00;;;19.70;99.90;;;;;;4991856;28;20034;-72
2022/06/23 00:15:19;;;;;;;1.33;0.40;;;19.80;99.90;;;;;;4991512;28;20050;-72
2022/06/23 00:18:01;;;;;;;0.63;0.63;;;19.60;99.90;;;;;;4992895;28;20045;-73
2022/06/23 00:20:52;;;;;;;1.27;1.05;;;19.30;99.90;;;;;;4992605;28;20042;-73
2022/06/23 00:23:30;;;;;;;0.75;0.75;;;19.20;99.90;;;;;;4993016;28;20073;-73
2022/06/23 00:26:10;;;;;;;1.15;1.02;;;19.10;99.90;;;;;;4991353;28;20505;-73
2022/06/23 00:29:04;;;;;;;2.20;2.00;;;19.20;99.90;;;;;;4992183;28;20049;-73
2022/06/23 00:31:46;;;;;;;0.80;0.80;;;19.20;99.90;;;;;;4991294;28;20034;-73
2022/06/23 00:34:39;;;;;;;2.35;2.15;;;19.30;99.90;;;;;;4991234;28;20117;-71
2022/06/23 00:37:11;;;;;;;0.80;0.77;;;19.00;99.90;;;;;;4992835;28;20074;-73
2022/06/23 00:40:01;;;;;;;1.67;1.52;;;19.10;99.90;;;;;;4992288;28;20121;-73
2022/06/23 00:42:49;;;;;;;1.08;1.08;;;19.20;99.90;;;;;;4992083;28;20054;-72
2022/06/23 00:46:14;;;;;;;0.73;0.73;;;19.10;99.90;;;;;;4991319;28;20126;-72
2022/06/23 00:48:46;;;;;;;0.32;0.32;;;19.00;99.90;;;;;;4991316;28;20542;-73
2022/06/23 00:51:26;;;;;;;0.30;0.30;;;19.00;99.90;;;;;;4975201;28;20030;-72
2022/06/23 00:54:04;;;;;;;2.25;1.35;;;19.10;99.90;;;;;;4991006;28;20038;-72
2022/06/23 00:56:59;;;;;;;0.95;0.90;;;19.30;99.90;;;;;;4992287;28;20113;-72
2022/06/23 00:59:53;;;;;;;0.82;0.80;;;19.40;99.90;;;;;;5007161;28;20026;-73
2022/06/23 01:02:33;;;;;;;0.38;0.38;;;19.50;99.90;;;;;;4991977;28;20034;-73
2022/06/23 01:05:23;;;;;;;1.27;1.00;;;19.60;99.90;;;;;;4987856;28;20030;-72
2022/06/23 01:08:05;;;;;;;1.63;0.90;;;19.70;99.90;;;;;;5002641;28;20029;-73
2022/06/23 01:11:29;;;;;;;1.17;1.00;;;19.40;99.90;;;;;;4973885;28;20035;-73
2022/06/23 01:14:30;;;;;;;0.98;0.88;;;18.80;99.90;;;;;;4960010;28;20045;-72
2022/06/23 01:17:20;;;;;;;;;;;18.70;99.90;;;;;;4972490;28;20042;-72
2022/06/23 01:19:58;;;;;;;0.70;0.65;;;18.80;99.90;;;;;;4970937;28;19910;-72
2022/06/23 01:22:50;;;;;;;3.05;1.23;;;18.90;99.90;;;;;;4972316;28;20042;-72
2022/06/23 01:25:33;;;;;;;0.73;0.68;;;18.90;99.90;;;;;;5005061;28;20026;-73
2022/06/23 01:28:03;;;;;;;1.48;1.20;;;19.20;99.90;;;;;;4991587;28;20065;-73
2022/06/23 01:30:47;;;;;;;1.65;1.40;;;19.20;99.90;;;;;;4990358;28;20038;-72
2022/06/23 01:33:38;;;;;;;1.85;0.95;;;19.20;99.90;;;;;;4990197;28;20038;-73
2022/06/23 01:36:23;;;;;;;1.95;1.50;;;19.30;99.90;;;;;;4990406;28;20034;-72
2022/06/23 01:39:12;;;;;;;0.85;0.85;;;19.50;99.90;;;;;;4989823;28;20038;-72
2022/06/23 01:41:41;;;;;;;0.28;0.28;;;19.40;99.90;;;;;;4977692;28;20035;-73
2022/06/23 01:44:42;;;;;;;0.63;0.63;;;19.20;99.90;;;;;;4971809;28;20031;-72
2022/06/23 01:47:42;;;;;;;1.27;1.17;;;19.10;99.90;;;;;;4970697;28;20093;-72
2022/06/23 01:50:14;;;;;;;2.85;1.45;;;19.00;99.90;;;;;;4967674;28;20041;-72
2022/06/23 01:52:47;;;;;;;0.88;0.60;;;19.10;99.90;;;;;;4971693;28;20034;-73
2022/06/23 01:55:29;;;;;;;2.67;2.03;;;18.90;99.90;;;;;;4970950;28;20127;-73
2022/06/23 01:58:03;;;;;;;0.70;0.70;;;18.50;99.90;;;;;;4971088;28;20035;-72
2022/06/23 02:00:30;;;;;;;3.58;1.60;;;18.20;99.90;;;;;;4971375;28;20066;-72
2022/06/23 02:03:25;;;;;;;0.28;0.28;;;18.20;99.90;;;;;;4970168;28;20027;-72
2022/06/23 02:06:18;;;;;;;0.73;0.70;;;18.20;99.90;;;;;;4970498;28;20027;-72
2022/06/23 02:09:25;;;;;;;1.88;1.75;;;18.40;99.90;;;;;;4964742;28;20499;-72
2022/06/23 02:11:52;;;;;;;1.05;1.02;;;18.50;99.90;;;;;;4970563;28;20046;-72
2022/06/23 02:14:48;;;;;;;5.22;2.10;;;18.30;99.90;;;;;;4970959;28;20035;-72
2022/06/23 02:17:53;;;;;;;0.75;0.70;;;18.50;99.90;;;;;;4990720;28;20100;-72
2022/06/23 02:20:37;;;;;;;2.20;1.65;;;18.40;99.90;;;;;;4989307;28;20095;-71
2022/06/23 02:23:44;;;;;;;4.45;1.73;;;18.50;99.90;;;;;;4991303;28;20501;-72
2022/06/23 02:26:10;;;;;;;1.38;1.05;;;18.60;99.90;;;;;;4994836;28;20110;-71
2022/06/23 02:29:03;;;;;;;1.90;1.27;;;18.70;99.90;;;;;;4994417;28;20113;-71
2022/06/23 02:31:52;;;;;;;1.35;1.25;;;18.70;99.90;;;;;;4990143;28;20042;-71
2022/06/23 02:34:37;;;;;;;1.02;0.90;;;18.90;99.90;;;;;;4994788;28;20030;-72
2022/06/23 02:37:33;;;;;;;1.25;0.93;;;18.70;99.90;;;;;;4994856;28;20045;-72
2022/06/23 02:39:59;;;;;;;2.75;1.30;;;18.70;99.90;;;;;;4994224;28;20080;-72
2022/06/23 02:42:37;;;;;;;1.33;1.23;;;18.80;99.90;;;;;;5017188;23;20068;-65
2022/06/23 02:45:38;;;;;;;0.90;0.77;;;18.70;99.90;;;;;;5031845;28;20108;-65
2022/06/23 02:48:52;;;;;;;6.15;2.30;;;18.50;99.90;;;;;;5021223;28;20019;-65
2022/06/23 02:51:36;;;;;;;1.95;1.50;;;18.40;99.90;;;;;;4994370;28;20487;-65
2022/06/23 02:54:27;;;;;;;2.92;1.33;;;18.40;99.90;;;;;;5007700;28;20026;-65
2022/06/23 02:57:36;;;;;;;0.40;0.30;;;18.60;99.90;;;;;;4994434;28;20523;-65
2022/06/23 03:00:27;;;;;;;0.65;0.43;;;18.60;99.90;;;;;;4994011;28;20055;-65
2022/06/23 03:03:08;;;;;;;;;;;18.60;99.90;;;;;;4997365;28;20024;-65
2022/06/23 03:06:15;;;;;;;2.42;1.33;;;18.70;99.90;;;;;;5011637;28;19913;-65
2022/06/23 03:09:28;;;;;;;0.10;0.10;;;18.80;99.90;;;;;;5014287;28;20065;-65
2022/06/23 03:12:11;;;;;;;0.60;0.60;;;18.80;99.90;;;;;;5021523;28;20231;-65
2022/06/23 03:14:53;;;;;;;1.30;1.20;;;18.70;99.90;;;;;;5029004;28;20021;-65
2022/06/23 03:17:33;;;;;;;0.40;0.40;;;18.60;99.90;;;;;;5030765;28;20040;-65
2022/06/23 03:20:23;;;;;;;1.48;1.38;;;18.80;99.90;;;;;;5032842;28;20029;-65
2022/06/23 03:23:26;;;;;;;1.08;1.02;;;18.70;99.90;;;;;;5033146;28;20068;-65
2022/06/23 03:26:22;;;;;;;4.00;1.40;;;19.00;99.90;;;;;;5013292;28;20038;-65
2022/06/23 03:29:24;;;;;;;2.63;1.67;;;19.00;99.90;;;;;;5013056;28;20033;-65
2022/06/23 03:32:22;;;;;;;1.20;0.88;;;19.10;99.90;;;;;;5013404;28;20041;-65
2022/06/23 03:35:15;;;;;;;0.77;0.77;;;19.00;99.90;;;;;;5011303;28;20031;-65
2022/06/23 03:38:05;;;;;;;1.15;1.02;;;18.70;99.90;;;;;;5012951;28;20094;-65
2022/06/23 03:43:41;;;;;;;2.50;1.85;;;18.00;99.90;;;;;;4992289;28;20038;-65
2022/06/23 03:46:21;;;;;;;2.13;1.42;;;17.80;99.90;;;;;;4993615;28;20033;-65
2022/06/23 03:48:54;;;;;;;1.77;1.67;;;18.00;99.90;;;;;;4993416;28;20026;-65
2022/06/23 03:51:58;;;;;;;1.52;1.42;;;18.10;99.90;;;;;;4992216;28;20038;-66
2022/06/23 03:55:07;;;;;;;0.77;0.75;;;18.20;99.90;;;;;;4991957;28;20034;-66
2022/06/23 03:57:42;;;;;;;0.63;0.63;;;18.40;99.90;;;;;;5002418;28;20398;-66
2022/06/23 04:00:34;;;;;;;0.95;0.85;;;18.30;99.90;;;;;;5009013;28;20034;-65
2022/06/23 04:03:42;;;;;;;1.65;1.55;;;18.20;99.90;;;;;;5004187;28;20034;-67
2022/06/23 04:06:37;;;;;;;0.65;0.65;;;18.50;99.90;;;;;;5007543;28;20192;-67
2022/06/23 04:09:25;;;;;;;0.98;0.98;;;18.60;99.90;;;;;;5013258;28;20049;-67
2022/06/23 04:12:14;;;;;;;1.88;1.25;;;18.50;99.90;;;;;;5020187;28;20049;-67
2022/06/23 04:15:02;;;;;;;9.55;1.83;;;18.60;99.90;;;;;;5027212;28;20026;-67
2022/06/23 04:18:01;;;;;;;1.35;1.25;;;18.60;99.90;;;;;;4992615;28;20610;-68
2022/06/23 04:20:38;;;;;;;1.85;1.75;;;18.60;99.90;;;;;;4990695;28;20061;-67
2022/06/23 04:23:36;;;;;;;1.23;1.13;;;18.70;99.90;;;;;;4992034;28;20502;-67
2022/06/23 04:26:13;;;;;;;1.55;1.45;;;18.70;99.90;;;;;;4991027;28;20042;-67
2022/06/23 04:29:00;;;;;;;4.28;2.38;;;18.80;99.90;;;;;;4963192;28;20034;-67
2022/06/23 04:31:30;;;;;;;1.50;1.40;;;18.70;99.90;;;;;;4990705;28;20426;-67
2022/06/23 04:34:00;;;;;;;1.67;1.58;;;18.90;99.90;;;;;;4990916;28;20026;-67
2022/06/23 04:36:33;;;;;;;1.30;1.20;;;18.90;99.90;;;;;;4991303;28;20476;-67
2022/06/23 04:39:17;;;;;;;1.60;1.45;;;19.00;99.90;;;;;;4991105;28;20124;-67
2022/06/23 04:41:53;;;;;;;5.88;5.38;;;19.10;99.90;;;;;;4991782;28;20035;-67
2022/06/23 04:44:33;;;;;;;7.88;5.15;;;19.10;99.90;;;;;;4990598;28;20038;-67
2022/06/23 04:47:07;;;;;;;7.80;3.20;;;19.20;99.90;;;;;;4989512;28;20034;-67
2022/06/23 04:49:49;;;;;;;1.27;0.98;;;19.10;99.90;;;;;;5007130;28;20425;-87
2022/06/23 04:52:26;;;;;;;2.45;2.25;;;19.20;99.90;;;;;;5477134;22;20044;-82
2022/06/23 04:55:05;;;;;;;3.78;2.85;;;19.10;99.90;;;;;;5027059;28;20422;-88
2022/06/23 04:57:49;;;;;;;1.52;1.40;;;19.00;99.90;;;;;;5029846;28;20335;-89
2022/06/23 05:00:39;;;;;;;1.60;1.50;;;19.00;99.90;;;;;;5034695;28;20113;-85
2022/06/23 05:08:32;;;;;;;1.73;1.63;;;19.20;99.90;;;;;;5704860;22;20045;-69
2022/06/23 05:11:09;;;;;;;6.07;1.60;;;19.30;99.90;;;;;;5011333;28;20030;-69
2022/06/23 05:13:54;;;;;;;6.47;3.35;;;19.30;99.90;;;;;;5011265;28;20049;-69
2022/06/23 05:16:28;;;;;;;2.40;1.25;;;19.30;99.90;;;;;;4997221;28;20110;-68
2022/06/23 05:18:57;;;;;;;1.67;1.58;;;19.30;99.90;;;;;;4989703;28;20394;-68
2022/06/23 05:21:43;;;;;;;2.65;2.35;;;19.40;99.90;;;;;;4990827;28;20030;-68
2022/06/23 05:24:26;;;;;;;1.90;1.80;;;19.30;99.90;;;;;;4991741;28;20037;-67
2022/06/23 05:27:02;;;;;;;3.30;1.65;;;19.40;99.90;;;;;;4991025;28;20367;-68
2022/06/23 05:29:37;;;;;;;2.03;1.55;;;19.50;99.90;;;;;;4995499;28;20026;-67
2022/06/23 05:32:23;;;;;;;2.75;2.45;;;19.50;99.90;;;;;;5024216;28;20034;-69
2022/06/23 05:35:00;;;;;;;3.50;2.80;;;19.60;99.90;;;;;;5025597;28;20046;-68
2022/06/23 05:37:42;;;;;;;1.92;1.83;;;19.60;99.90;;;;;;5010740;28;20069;-69
2022/06/23 05:40:51;;;;;;;2.25;1.75;;;19.60;99.90;;;;;;5010247;28;20034;-68
2022/06/23 05:43:17;;;;;;;1.80;1.70;;;19.70;99.90;;;;;;5022529;28;20566;-69
2022/06/23 05:45:51;;;;;;;5.20;1.83;;;19.80;99.90;;;;;;5026073;28;20030;-69
2022/06/23 05:48:39;;;;;;;4.55;2.35;;;19.80;99.90;;;;;;5025569;28;20034;-69
2022/06/23 05:51:15;;;;;;;3.35;1.23;;;19.90;99.90;;;;;;5025114;28;20559;-69
2022/06/23 05:54:05;;;;;;;2.80;2.60;;;19.90;99.90;;;;;;5024559;28;20058;-68
2022/06/23 05:57:15;;;;;;;2.97;2.17;;;20.00;99.90;;;;;;5010506;28;20113;-68
2022/06/23 06:00:00;;;;;;;0.82;0.82;;;20.10;99.90;;;;;;5023435;28;20044;-68
2022/06/23 06:02:44;;;;;;;1.60;1.20;;;20.20;99.90;;;;;;5009798;28;20034;-69
2022/06/23 06:05:41;;;;;;;4.45;1.50;;;20.30;99.90;;;;;;5010279;28;20508;-69
2022/06/23 06:09:35;;;;;;;1.13;0.88;;;20.40;99.90;;;;;;5010292;28;20026;-69
2022/06/23 06:11:21;;;;;;;2.17;1.63;;;20.50;99.90;;;;;;5009050;28;20038;-69
2022/06/23 06:13:47;;;;;;;3.05;2.40;;;20.60;99.90;;;;;;5012985;28;20029;-68
2022/06/23 06:16:12;;;;;;;7.00;3.60;;;20.70;99.90;;;;;;4998416;28;20486;-69
2022/06/23 06:18:43;;;;;;;1.25;1.15;;;20.90;99.90;;;;;;5011612;28;20398;-69
2022/06/23 06:21:16;;;;;;;1.65;1.55;;;21.20;99.90;;;;;;4997561;28;20117;-68
2022/06/23 06:24:25;;;;;;;2.75;2.53;;;21.30;99.90;;;;;;4999891;28;20489;-69
2022/06/23 06:26:54;;;;;;;2.00;1.90;;;21.60;99.90;;;;;;4989318;28;20066;-69
2022/06/23 06:29:26;;;;;;;15.57;2.50;;;21.70;99.90;;;;;;4992254;28;20026;-69
2022/06/23 06:32:16;;;;;;;1.23;1.15;;;21.80;99.90;;;;;;5010165;28;20030;-69
2022/06/23 06:34:48;;;;;;;1.95;1.83;;;21.70;99.90;;;;;;5023051;28;20109;-69
2022/06/23 06:37:16;;;;;;;4.78;1.67;;;21.70;99.90;;;;;;5024990;28;20470;-69
2022/06/23 06:39:52;;;;;;;1.40;1.30;;;21.60;99.90;;;;;;4995011;28;20026;-70
2022/06/23 06:42:34;;;;;;;1.55;1.45;;;21.80;99.90;;;;;;4989295;28;20037;-69
2022/06/23 06:45:06;;;;;;;3.17;1.88;;;21.60;99.90;;;;;;4990431;28;20046;-70
2022/06/23 06:47:38;;;;;;;3.58;2.50;;;21.60;99.90;;;;;;4990753;28;20089;-69
2022/06/23 06:50:42;;;;;;;2.03;1.42;;;21.60;99.90;;;;;;4989001;28;20124;-69
2022/06/23 06:53:21;;;;;;;1.77;1.67;;;21.50;99.90;;;;;;4994221;28;20403;-69
2022/06/23 06:55:56;;;;;;;4.80;1.63;;;21.40;99.90;;;;;;5004731;28;20027;-68
2022/06/23 06:58:53;;;;;;;3.45;2.53;;;21.70;99.90;;;;;;5009335;28;20033;-80
2022/06/23 07:01:23;;;;;;;2.80;2.20;;;21.90;99.90;;;;;;4986815;28;20073;-66
2022/06/23 07:03:52;;;;;;;4.72;3.17;;;21.70;99.90;;;;;;4991575;28;20441;-66
2022/06/23 07:06:48;;;;;;;5.38;2.83;;;21.90;99.90;;;;;;5001036;28;20041;-66
2022/06/23 07:09:32;;;;;;;2.72;1.70;;;22.10;99.90;;;;;;5005253;28;20486;-66
2022/06/23 07:12:24;;;;;;;2.20;1.98;;;22.10;99.90;;;;;;5013193;28;20466;-66
2022/06/23 07:15:20;;;;;;;1.30;1.20;;;22.00;99.90;;;;;;4994028;28;20729;-68
2022/06/23 07:18:04;;;;;;;0.73;0.73;;;21.80;99.90;;;;;;4992581;28;20034;-67
2022/06/23 07:21:02;;;;;;;1.75;1.63;;;22.00;99.90;;;;;;5005629;28;20026;-67
2022/06/23 07:23:44;;;;;;;1.58;1.48;;;22.00;99.90;;;;;;5012372;28;20546;-67
2022/06/23 07:26:22;;;;;;;3.45;2.40;;;22.20;99.90;;;;;;5012313;28;20030;-66
2022/06/23 07:28:55;;;;;;;1.67;1.48;;;22.30;99.90;;;;;;5012968;28;20045;-66
2022/06/23 07:31:33;;;;;;;1.63;1.52;;;22.20;99.90;;;;;;5011817;28;20444;-67
2022/06/23 07:34:07;;;;;;;3.47;1.42;;;22.30;99.90;;;;;;5012069;28;20030;-67
2022/06/23 07:36:46;;;;;;;1.27;1.17;;;22.40;99.90;;;;;;5011982;28;20526;-68
2022/06/23 07:39:22;;;;;;;3.50;2.70;;;22.50;99.90;;;;;;5012439;28;20382;-68
2022/06/23 07:42:21;;;;;;;1.08;0.98;;;22.60;99.90;;;;;;5011694;28;20115;-68
2022/06/23 07:45:25;;;;;;;3.78;1.70;;;22.60;99.90;;;;;;5011599;28;20021;-67
2022/06/23 07:47:51;;;;;;;0.52;0.52;;;22.80;99.90;;;;;;4999895;28;20116;-68
2022/06/23 07:50:17;;;;;;;0.90;0.90;;;22.70;99.90;;;;;;5009076;28;20097;-68
2022/06/23 07:52:44;;;;;;;3.10;2.08;;;22.90;99.90;;;;;;4993536;28;20080;-67
2022/06/23 07:55:23;;;;;;;4.03;2.47;;;22.50;99.90;;;;;;5003265;28;20034;-68
2022/06/23 07:57:49;;;;;;;3.40;2.83;;;22.40;99.90;;;;;;4991358;28;20380;-68
2022/06/23 08:00:16;;;;;;;2.35;2.20;;;22.40;99.90;;;;;;5003066;28;20064;-68
2022/06/23 08:03:03;;;;;;;1.50;1.40;;;22.30;99.90;;;;;;5004284;28;20023;-67
2022/06/23 08:05:41;;;;;;;1.20;1.13;;;22.40;99.90;;;;;;5008372;28;20069;-68
2022/06/23 08:08:12;;;;;;;3.00;2.13;;;22.60;99.90;;;;;;5006355;28;20402;-67
2022/06/23 08:10:38;;;;;;;1.80;1.58;;;22.70;99.90;;;;;;5022789;28;20486;-67
2022/06/23 08:13:17;;;;;;;11.77;5.13;;;22.70;99.90;;;;;;5010553;28;20041;-66
2022/06/23 08:19:01;;;;;;;2.42;1.50;;;22.80;99.90;;;;;;5010798;28;20490;-66
2022/06/23 08:21:46;;;;;;;1.60;1.48;;;22.70;99.90;;;;;;5000121;28;20038;-66
2022/06/23 08:24:25;;;;;;;3.90;2.17;;;22.80;99.90;;;;;;5001531;28;20030;-66
2022/06/23 08:27:18;;;;;;;10.57;2.17;;;22.50;99.90;;;;;;4987656;28;20041;-67
2022/06/23 08:29:53;;;;;;;6.32;1.67;;;22.60;99.90;;;;;;5009778;28;20037;-67
2022/06/23 08:32:20;;;;;;;4.80;3.25;;;22.80;99.90;;;;;;5004146;28;20030;-66
2022/06/23 08:35:07;;;;;;;2.92;2.42;;;22.80;99.90;;;;;;5006781;28;20037;-67
2022/06/23 08:38:07;;;;;;;1.60;1.50;;;23.00;99.90;;;;;;4991967;28;20037;-66
2022/06/23 08:40:42;;;;;;;1.33;1.23;;;23.10;99.90;;;;;;5002638;28;20041;-66
2022/06/23 08:43:36;;;;;;;2.45;2.13;;;23.10;99.90;;;;;;5034509;23;20045;-67
2022/06/23 08:46:37;;;;;;;0.82;0.75;;;23.00;99.90;;;;;;4998484;28;20193;-66
2022/06/23 08:49:39;;;;;;;1.17;1.08;;;23.30;99.90;;;;;;5020996;28;20121;-67
2022/06/23 08:52:25;;;;;;;2.53;1.70;;;23.30;99.90;;;;;;4996516;28;20039;-67
2022/06/23 08:55:14;;;;;;;0.95;0.77;;;23.40;99.90;;;;;;4993142;28;20034;-67
2022/06/23 08:58:03;;;;;;;0.95;0.93;;;23.60;99.90;;;;;;4991702;28;20494;-67
2022/06/23 09:00:36;;;;;;;2.13;1.30;;;23.80;99.90;;;;;;4998144;28;20514;-66
2022/06/23 09:03:16;;;;;;;9.13;2.35;;;23.90;99.90;;;;;;4990694;28;20386;-66
2022/06/23 09:05:46;;;;;;;;;;;23.70;99.90;;;;;;4997022;28;20104;-66
2022/06/23 09:08:38;;;;;;;3.35;2.75;;;23.50;99.90;;;;;;4995272;28;19909;-66
2022/06/23 09:11:46;;;;;;;0.47;0.47;;;23.70;99.90;;;;;;4997532;28;20037;-66
2022/06/23 09:14:33;;;;;;;3.08;2.17;;;24.10;99.90;;;;;;5005880;28;20022;-64
2022/06/23 09:17:33;;;;;;;0.55;0.55;;;24.30;99.90;;;;;;4998361;28;20137;-64
2022/06/23 09:20:59;;;;;;;2.22;0.93;;;24.40;99.90;;;;;;4999509;28;20656;-64
2022/06/23 09:23:48;;;;;;;1.35;0.90;;;24.50;99.90;;;;;;5008615;28;20033;-65
2022/06/23 09:26:39;;;;;;;3.28;1.40;;;24.60;99.90;;;;;;5001853;28;20170;-65
2022/06/23 09:29:21;;;;;;;;;;;24.90;99.90;;;;;;4994329;28;20145;-66
2022/06/23 09:32:12;;;;;;;1.60;1.40;;;24.80;99.90;;;;;;4997393;28;19909;-64
2022/06/23 09:35:22;;;;;;;1.30;1.10;;;25.10;99.90;;;;;;4991243;28;20036;-67
2022/06/23 09:38:19;;;;;;;5.93;2.83;;;25.20;99.90;;;;;;4990726;28;20134;-65
2022/06/23 09:41:08;;;;;;;0.90;0.40;;;24.90;99.90;;;;;;4994696;28;20038;-64
2022/06/23 09:44:29;;;;;;;1.17;0.98;;;25.10;99.90;;;;;;5010031;28;20096;-65
2022/06/23 09:47:23;;;;;;;0.93;0.63;;;25.20;99.90;;;;;;4996283;28;20034;-65
2022/06/23 09:50:23;;;;;;;2.10;1.15;;;25.40;99.90;;;;;;4991230;28;20038;-65
2022/06/23 09:53:30;;;;;;;1.00;0.95;;;25.60;99.90;;;;;;5006889;28;20052;-63
2022/06/23 09:56:34;;;;;;;1.35;0.90;;;25.70;99.90;;;;;;4996612;28;20046;-64
2022/06/23 09:59:38;;;;;;;1.27;1.17;;;25.90;99.90;;;;;;5008188;28;20135;-63
2022/06/23 10:02:15;;;;;;;0.43;0.43;;;25.90;99.90;;;;;;5001759;28;20058;-62
2022/06/23 10:05:06;;;;;;;1.83;1.27;;;26.20;99.90;;;;;;5010247;28;20510;-63
2022/06/23 10:08:02;;;;;;;0.50;0.50;;;26.30;99.90;;;;;;5001162;28;20512;-63
2022/06/23 10:10:54;;;;;;;2.20;1.55;;;26.30;99.90;;;;;;5004499;28;20026;-63
2022/06/23 10:14:16;;;;;;;3.17;1.65;;;26.30;99.90;;;;;;5006741;28;20061;-63
2022/06/23 10:17:32;;;;;;;3.88;2.38;;;26.50;99.90;;;;;;5015175;28;20038;-66
2022/06/23 10:20:12;;;;;;;0.52;0.35;;;26.60;99.90;;;;;;4999130;28;20077;-64
2022/06/23 10:23:08;;;;;;;0.30;0.30;;;27.10;99.90;;;;;;4990867;28;20101;-64
2022/06/23 10:26:03;;;;;;;2.25;1.08;;;27.30;99.90;;;;;;5001269;28;20038;-64
2022/06/23 10:29:12;;;;;;;1.25;0.32;;;27.20;99.90;;;;;;4996558;28;20120;-64
2022/06/23 10:31:56;;;;;;;1.23;0.75;;;27.20;99.90;;;;;;5000095;28;20589;-73
2022/06/23 10:34:48;;;;;;;1.38;0.65;;;27.20;99.90;;;;;;4995968;28;20034;-73
2022/06/23 10:38:10;;;;;;;0.30;0.30;;;27.40;99.90;;;;;;5005476;28;20030;-72
2022/06/23 10:41:05;;;;;;;6.75;1.80;;;27.40;99.90;;;;;;4996827;28;20391;-72
2022/06/23 10:44:04;;;;;;;0.70;0.70;;;27.70;99.50;;;;;;4989741;28;20042;-72
2022/06/23 10:46:54;;;;;;;4.30;1.05;;;27.70;99.40;;;;;;5002315;28;20456;-72
2022/06/23 10:49:58;;;;;;;2.00;0.35;;;27.80;99.00;;;;;;4993404;28;20089;-72
2022/06/23 10:53:01;;;;;;;0.13;0.08;;;28.10;99.30;;;;;;4997853;28;20042;-73
2022/06/23 10:55:57;;;;;;;5.38;1.08;;;27.80;98.70;;;;;;5004025;28;20038;-73
2022/06/23 10:58:55;;;;;;;1.73;1.13;;;28.00;98.40;;;;;;5011354;28;20030;-72
2022/06/23 11:02:23;;;;;;;0.75;0.75;;;27.90;98.60;;;;;;5002978;28;20038;-72
2022/06/23 11:05:12;;;;;;;0.45;0.43;;;28.00;97.90;;;;;;4955796;28;20054;-73
2022/06/23 11:08:09;;;;;;;0.57;0.55;;;28.30;98.20;;;;;;4985847;28;20526;-72
2022/06/23 11:11:19;;;;;;;0.88;0.88;;;28.50;97.50;;;;;;4989250;28;20077;-73
2022/06/23 11:14:00;;;;;;;0.45;0.45;;;28.70;97.00;;;;;;5009331;28;20042;-72
2022/06/23 11:16:52;;;;;;;0.20;0.20;;;28.70;96.90;;;;;;4999998;28;20505;-71
2022/06/23 11:20:01;;;;;;;0.03;0.03;;;28.70;96.80;;;;;;5006492;28;20030;-72
2022/06/23 11:23:15;;;;;;;0.43;0.43;;;28.90;96.10;;;;;;5009813;28;20034;-72
2022/06/23 11:26:00;;;;;;;2.85;1.73;;;28.90;96.60;;;;;;5000039;28;20129;-73
2022/06/23 11:28:54;;;;;;;0.95;0.90;;;29.20;95.00;;;;;;5010986;28;20109;-72
2022/06/23 11:32:16;;;;;;;0.68;0.35;;;29.40;94.70;;;;;;5002074;28;20030;-73
2022/06/23 11:35:19;;;;;;;0.20;0.20;;;29.60;95.10;;;;;;4993368;28;20138;-71
2022/06/23 11:38:17;;;;;;;1.00;0.63;;;29.50;94.90;;;;;;4997944;28;20022;-72
2022/06/23 11:41:20;;;;;;;1.98;0.85;;;29.70;94.60;;;;;;4996144;28;20042;-73
2022/06/23 11:43:54;;;;;;;1.55;1.30;;;29.60;94.70;;;;;;5024039;28;20453;-73
2022/06/23 11:46:29;;;;;;;1.35;0.38;;;29.70;94.10;;;;;;5000367;28;20096;-73
2022/06/23 11:49:16;;;;;;;0.10;0.10;;;30.10;93.70;;;;;;5008758;28;20045;-73
2022/06/23 11:52:22;;;;;;;0.88;0.77;;;29.60;92.90;;;;;;5000250;28;20394;-73
2022/06/23 11:55:19;;;;;;;0.17;0.15;;;30.00;93.50;;;;;;5002932;28;20062;-73
2022/06/23 11:58:14;;;;;;;1.45;0.55;;;30.30;92.10;;;;;;5004739;28;20066;-73
2022/06/23 12:01:14;;;;;;;1.38;0.95;;;30.40;92.20;;;;;;5004364;28;20030;-73
2022/06/23 12:04:21;;;;;;;0.65;0.65;;;30.50;91.40;;;;;;4992057;28;20042;-72
2022/06/23 12:07:27;;;;;;;3.40;1.65;;;30.70;91.60;;;;;;4996314;28;20038;-71
2022/06/23 12:10:14;;;;;;;1.52;0.68;;;30.80;90.90;;;;;;5007220;28;20121;-72
2022/06/23 12:12:44;;;;;;;1.33;0.77;;;30.30;91.40;;;;;;4992229;28;20053;-73
2022/06/23 12:15:13;;;;;;;0.00;0.00;;;30.80;90.00;;;;;;4986601;28;20018;-73
2022/06/23 12:17:48;;;;;;;2.38;0.70;;;30.30;90.10;;;;;;4991929;28;20061;-72
2022/06/23 12:20:32;;;;;;;0.82;0.68;;;30.70;91.00;;;;;;4998721;28;20022;-71
2022/06/23 12:23:15;;;;;;;0.20;0.20;;;30.80;90.80;;;;;;5004225;28;20022;-71
2022/06/23 12:26:14;;;;;;;5.13;1.17;;;31.10;90.10;;;;;;4991634;28;20026;-71
2022/06/23 12:29:13;;;;;;;1.40;0.75;;;30.80;90.10;;;;;;4991105;28;20038;-71
2022/06/23 12:32:01;;;;;;;0.00;0.00;;;31.30;88.30;;;;;;5006267;28;20025;-71
2022/06/23 12:35:28;;;;;;;0.80;0.55;;;31.40;84.10;;;;;;5004321;28;20022;-71
2022/06/23 12:38:10;;;;;;;0.43;0.38;;;31.70;82.80;;;;;;4991169;28;20034;-71
2022/06/23 12:40:55;;;;;;;1.23;0.80;;;31.60;84.60;;;;;;4995553;28;20030;-71
2022/06/23 12:44:11;;;;;;;5.05;2.65;;;31.90;84.50;;;;;;5009116;28;20037;-71
2022/06/23 12:47:07;;;;;;;1.05;0.47;;;31.70;85.20;;;;;;5003051;28;20026;-80
2022/06/23 12:50:29;;;;;;;9.95;1.08;;;31.40;86.70;;;;;;5009841;28;20494;-71
2022/06/23 12:53:26;;;;;;;0.20;0.10;;;31.40;85.90;;;;;;5004676;28;20050;-72
2022/06/23 12:56:35;;;;;;;0.68;0.52;;;31.50;85.90;;;;;;4998862;28;20030;-72
2022/06/23 12:59:09;;;;;;;1.00;0.13;;;32.10;80.10;;;;;;4991801;28;20594;-66
2022/06/23 13:01:53;;;;;;;0.10;0.10;;;32.20;80.80;;;;;;4998818;28;20042;-66
2022/06/23 13:04:58;;;;;;;0.00;0.00;;;32.10;80.00;;;;;;4977225;28;20113;-66
2022/06/23 13:08:07;;;;;;;9.38;2.70;;;32.20;81.70;;;;;;5004171;28;20068;-67
2022/06/23 13:10:48;;;;;;;0.38;0.38;;;32.50;81.20;;;;;;4998067;28;20414;-67
2022/06/23 13:13:21;;;;;;;0.57;0.28;;;32.40;81.50;;;;;;5007694;28;20042;-65
2022/06/23 13:16:00;;;;;;;0.88;0.32;;;32.00;82.60;;;;;;4993637;28;20022;-65
2022/06/23 13:18:44;;;;;;;0.65;0.57;;;32.40;81.80;;;;;;5009204;28;20037;-65
2022/06/23 13:21:25;;;;;;;0.20;0.10;;;32.80;80.80;;;;;;4995024;28;20073;-65
2022/06/23 13:24:04;;;;;;;1.40;0.95;;;32.10;79.80;;;;;;5009408;28;20501;-67
2022/06/23 13:26:57;;;;;;;0.55;0.52;;;32.90;79.20;;;;;;4992823;28;20060;-66
2022/06/23 13:29:57;;;;;;;1.40;1.05;;;32.80;78.90;;;;;;5010540;28;20026;-66
2022/06/23 13:32:38;;;;;;;0.75;0.73;;;32.90;78.60;;;;;;4998790;28;20188;-67
2022/06/23 13:35:16;;;;;;;0.08;0.08;;;33.30;76.50;;;;;;5007199;28;20408;-66
2022/06/23 13:38:28;;;;;;;1.98;1.17;;;33.60;74.90;;;;;;4990681;28;20042;-66
2022/06/23 13:41:02;;;;;;;2.35;1.52;;;34.70;74.10;;;;;;5004537;28;20030;-65
2022/06/23 13:44:40;;;;;;;0.10;0.10;;;34.00;73.00;;;;;;5005962;28;20101;-66
2022/06/23 13:47:19;;;;;;;0.38;0.38;;;33.90;74.10;;;;;;4982023;28;20077;-66
2022/06/23 13:50:39;;;;;;;0.52;0.38;;;33.90;74.90;;;;;;5006182;28;20128;-66
2022/06/23 13:53:39;;;;;;;0.00;0.00;;;35.30;73.40;;;;;;4989317;28;20049;-66
2022/06/23 13:56:14;;;;;;;0.40;0.40;;;34.50;73.10;;;;;;4995667;28;20037;-66
2022/06/23 13:58:59;;;;;;;0.98;0.65;;;34.60;72.50;;;;;;5006089;28;20042;-66
2022/06/23 14:01:58;;;;;;;0.75;0.75;;;34.20;72.00;;;;;;4994596;28;20162;-65
2022/06/23 14:04:40;;;;;;;0.25;0.25;;;34.00;74.10;;;;;;4996971;28;20030;-66
2022/06/23 14:07:15;;;;;;;3.00;0.90;;;35.10;71.50;;;;;;4994179;28;20034;-66
2022/06/23 14:10:09;;;;;;;0.77;0.65;;;35.50;70.80;;;;;;4990590;28;20136;-66
2022/06/23 14:13:01;;;;;;;0.70;0.57;;;35.70;70.40;;;;;;4990569;28;20514;-67
2022/06/23 14:16:02;;;;;;;1.08;0.63;;;36.30;69.00;;;;;;5012035;28;20037;-66
2022/06/23 14:19:10;;;;;;;1.02;0.95;;;34.70;72.00;;;;;;4996422;28;20041;-66
2022/06/23 14:21:57;;;;;;;5.10;0.28;;;35.50;71.40;;;;;;5002125;28;20579;-66
2022/06/23 14:24:29;;;;;;;1.02;0.60;;;35.70;69.60;;;;;;5006023;28;20494;-66
2022/06/23 14:27:19;;;;;;;0.30;0.30;;;37.00;68.70;;;;;;5004767;28;20403;-67
2022/06/23 14:30:23;;;;;;;1.15;0.85;;;35.60;68.90;;;;;;5004302;28;20066;-66
2022/06/23 14:33:13;;;;;;;0.43;0.40;;;34.70;69.00;;;;;;5022364;28;20402;-66
2022/06/23 14:36:07;;;;;;;11.45;1.40;;;35.80;69.20;;;;;;5003917;28;20490;-66
2022/06/23 14:38:36;;;;;;;2.38;0.70;;;35.30;68.30;;;;;;5003915;28;20125;-66
2022/06/23 14:44:27;;;;;;;1.13;0.88;;;34.60;69.00;;;;;;4988060;28;20058;-68
2022/06/23 14:47:07;;;;;;;1.13;0.60;;;34.30;69.40;;;;;;4982532;28;20125;-68
2022/06/23 14:49:42;;;;;;;1.88;0.52;;;35.10;69.40;;;;;;4976820;28;20038;-67
2022/06/23 14:52:45;;;;;;;6.05;1.58;;;36.50;67.80;;;;;;4977774;28;20069;-68